sensor_id;sensor_type;location;lat;lon;timestamp;pressure;altitude;pressure_sealevel;temperature
38114;BMP180;23926;53.222;6.354;2023-12-20T00:01:26;101016.00;;;8.90
38114;BMP180;23926;53.222;6.354;2023-12-20T00:03:51;101022.00;;;8.70
38114;BMP180;23926;53.222;6.354;2023-12-20T00:06:17;101018.00;;;8.50
38114;BMP180;23926;53.222;6.354;2023-12-20T00:08:42;101007.00;;;8.60
38114;BMP180;23926;53.222;6.354;2023-12-20T00:11:09;101017.00;;;8.60
38114;BMP180;23926;53.222;6.354;2023-12-20T00:13:34;101022.00;;;8.60
38114;BMP180;23926;53.222;6.354;2023-12-20T00:15:59;101032.00;;;8.50
38114;BMP180;23926;53.222;6.354;2023-12-20T00:18:25;101020.00;;;8.60
38114;BMP180;23926;53.222;6.354;2023-12-20T00:20:50;101025.00;;;8.50
38114;BMP180;23926;53.222;6.354;2023-12-20T00:23:16;101032.00;;;8.40
38114;BMP180;23926;53.222;6.354;2023-12-20T00:25:41;101017.00;;;8.40
38114;BMP180;23926;53.222;6.354;2023-12-20T00:28:06;101012.00;;;8.50
38114;BMP180;23926;53.222;6.354;2023-12-20T00:30:32;101003.00;;;8.60
38114;BMP180;23926;53.222;6.354;2023-12-20T00:32:57;101012.00;;;8.60
38114;BMP180;23926;53.222;6.354;2023-12-20T00:35:23;101015.00;;;8.70
38114;BMP180;23926;53.222;6.354;2023-12-20T00:37:49;101017.00;;;8.60
38114;BMP180;23926;53.222;6.354;2023-12-20T00:40:14;101013.00;;;8.70
38114;BMP180;23926;53.222;6.354;2023-12-20T00:42:40;101022.00;;;8.70
38114;BMP180;23926;53.222;6.354;2023-12-20T00:45:05;101022.00;;;8.80
38114;BMP180;23926;53.222;6.354;2023-12-20T00:47:31;101029.00;;;8.90
38114;BMP180;23926;53.222;6.354;2023-12-20T00:49:57;101018.00;;;8.80
38114;BMP180;23926;53.222;6.354;2023-12-20T00:52:23;101011.00;;;8.90
38114;BMP180;23926;53.222;6.354;2023-12-20T00:54:48;101010.00;;;8.90
38114;BMP180;23926;53.222;6.354;2023-12-20T00:57:14;100992.00;;;9.00
38114;BMP180;23926;53.222;6.354;2023-12-20T00:59:40;100978.00;;;8.90
38114;BMP180;23926;53.222;6.354;2023-12-20T01:02:05;100979.00;;;8.90
38114;BMP180;23926;53.222;6.354;2023-12-20T01:04:31;100993.00;;;8.70
38114;BMP180;23926;53.222;6.354;2023-12-20T01:06:56;100988.00;;;8.70
38114;BMP180;23926;53.222;6.354;2023-12-20T01:09:21;100991.00;;;8.70
38114;BMP180;23926;53.222;6.354;2023-12-20T01:11:51;100979.00;;;8.50
38114;BMP180;23926;53.222;6.354;2023-12-20T01:14:17;100974.00;;;8.60
38114;BMP180;23926;53.222;6.354;2023-12-20T01:16:42;100972.00;;;8.60
38114;BMP180;23926;53.222;6.354;2023-12-20T01:19:07;100969.00;;;8.70
38114;BMP180;23926;53.222;6.354;2023-12-20T01:21:33;100963.00;;;8.80
38114;BMP180;23926;53.222;6.354;2023-12-20T01:23:58;100974.00;;;8.80
38114;BMP180;23926;53.222;6.354;2023-12-20T01:26:23;100967.00;;;8.70
38114;BMP180;23926;53.222;6.354;2023-12-20T01:28:49;100951.00;;;8.90
38114;BMP180;23926;53.222;6.354;2023-12-20T01:31:14;100976.00;;;9.00
38114;BMP180;23926;53.222;6.354;2023-12-20T01:33:39;100957.00;;;9.00
38114;BMP180;23926;53.222;6.354;2023-12-20T01:36:05;100970.00;;;9.10
38114;BMP180;23926;53.222;6.354;2023-12-20T01:38:30;100966.00;;;9.00
38114;BMP180;23926;53.222;6.354;2023-12-20T01:40:56;100966.00;;;8.90
38114;BMP180;23926;53.222;6.354;2023-12-20T01:43:21;100955.00;;;8.60
38114;BMP180;23926;53.222;6.354;2023-12-20T01:45:47;100955.00;;;8.60
38114;BMP180;23926;53.222;6.354;2023-12-20T01:48:14;100964.00;;;8.60
38114;BMP180;23926;53.222;6.354;2023-12-20T01:50:40;100958.00;;;8.80
38114;BMP180;23926;53.222;6.354;2023-12-20T01:53:07;100959.00;;;9.00
38114;BMP180;23926;53.222;6.354;2023-12-20T01:55:34;100962.00;;;9.10
38114;BMP180;23926;53.222;6.354;2023-12-20T01:58:00;100969.00;;;9.10
38114;BMP180;23926;53.222;6.354;2023-12-20T02:00:26;100959.00;;;8.90
38114;BMP180;23926;53.222;6.354;2023-12-20T02:02:53;100966.00;;;9.00
38114;BMP180;23926;53.222;6.354;2023-12-20T02:05:20;100965.00;;;8.90
38114;BMP180;23926;53.222;6.354;2023-12-20T02:07:46;100955.00;;;8.90
38114;BMP180;23926;53.222;6.354;2023-12-20T02:10:11;100956.00;;;9.00
38114;BMP180;23926;53.222;6.354;2023-12-20T02:12:38;100946.00;;;9.10
38114;BMP180;23926;53.222;6.354;2023-12-20T02:15:04;100932.00;;;8.90
38114;BMP180;23926;53.222;6.354;2023-12-20T02:17:31;100940.00;;;9.00
38114;BMP180;23926;53.222;6.354;2023-12-20T02:19:57;100936.00;;;9.00
38114;BMP180;23926;53.222;6.354;2023-12-20T02:22:22;100938.00;;;9.10
38114;BMP180;23926;53.222;6.354;2023-12-20T02:24:47;100940.00;;;9.10
38114;BMP180;23926;53.222;6.354;2023-12-20T02:27:14;100930.00;;;9.30
38114;BMP180;23926;53.222;6.354;2023-12-20T02:29:40;100930.00;;;9.30
38114;BMP180;23926;53.222;6.354;2023-12-20T02:32:05;100931.00;;;9.50
38114;BMP180;23926;53.222;6.354;2023-12-20T02:34:31;100937.00;;;9.80
38114;BMP180;23926;53.222;6.354;2023-12-20T02:36:56;100926.00;;;9.90
38114;BMP180;23926;53.222;6.354;2023-12-20T02:39:22;100930.00;;;9.70
38114;BMP180;23926;53.222;6.354;2023-12-20T02:41:48;100931.00;;;9.80
38114;BMP180;23926;53.222;6.354;2023-12-20T02:44:13;100922.00;;;9.70
38114;BMP180;23926;53.222;6.354;2023-12-20T02:46:39;100911.00;;;9.50
38114;BMP180;23926;53.222;6.354;2023-12-20T02:49:05;100917.00;;;9.50
38114;BMP180;23926;53.222;6.354;2023-12-20T02:51:30;100909.00;;;9.30
38114;BMP180;23926;53.222;6.354;2023-12-20T02:53:56;100916.00;;;9.40
38114;BMP180;23926;53.222;6.354;2023-12-20T02:56:21;100912.00;;;9.50
38114;BMP180;23926;53.222;6.354;2023-12-20T02:58:46;100897.00;;;9.50
38114;BMP180;23926;53.222;6.354;2023-12-20T03:01:12;100906.00;;;9.70
38114;BMP180;23926;53.222;6.354;2023-12-20T03:03:37;100898.00;;;9.30
38114;BMP180;23926;53.222;6.354;2023-12-20T03:06:03;100907.00;;;9.50
38114;BMP180;23926;53.222;6.354;2023-12-20T03:08:28;100890.00;;;9.50
38114;BMP180;23926;53.222;6.354;2023-12-20T03:10:53;100894.00;;;9.70
38114;BMP180;23926;53.222;6.354;2023-12-20T03:13:19;100910.00;;;9.70
38114;BMP180;23926;53.222;6.354;2023-12-20T03:15:45;100905.00;;;9.50
38114;BMP180;23926;53.222;6.354;2023-12-20T03:18:11;100905.00;;;9.30
38114;BMP180;23926;53.222;6.354;2023-12-20T03:20:36;100898.00;;;9.20
38114;BMP180;23926;53.222;6.354;2023-12-20T03:23:01;100881.00;;;9.10
38114;BMP180;23926;53.222;6.354;2023-12-20T03:25:27;100888.00;;;9.00
38114;BMP180;23926;53.222;6.354;2023-12-20T03:27:53;100883.00;;;9.00
38114;BMP180;23926;53.222;6.354;2023-12-20T03:30:18;100868.00;;;9.00
38114;BMP180;23926;53.222;6.354;2023-12-20T03:32:44;100874.00;;;9.00
38114;BMP180;23926;53.222;6.354;2023-12-20T03:35:09;100877.00;;;8.90
38114;BMP180;23926;53.222;6.354;2023-12-20T03:37:35;100867.00;;;8.90
38114;BMP180;23926;53.222;6.354;2023-12-20T03:40:01;100859.00;;;8.90
38114;BMP180;23926;53.222;6.354;2023-12-20T03:42:27;100865.00;;;9.00
38114;BMP180;23926;53.222;6.354;2023-12-20T03:44:52;100855.00;;;9.10
38114;BMP180;23926;53.222;6.354;2023-12-20T03:47:17;100851.00;;;9.10
38114;BMP180;23926;53.222;6.354;2023-12-20T03:49:43;100844.00;;;9.00
38114;BMP180;23926;53.222;6.354;2023-12-20T03:52:08;100853.00;;;9.20
38114;BMP180;23926;53.222;6.354;2023-12-20T03:54:35;100865.00;;;9.10
38114;BMP180;23926;53.222;6.354;2023-12-20T03:57:00;100857.00;;;9.20
38114;BMP180;23926;53.222;6.354;2023-12-20T03:59:25;100853.00;;;9.40
38114;BMP180;23926;53.222;6.354;2023-12-20T04:01:51;100863.00;;;9.40
38114;BMP180;23926;53.222;6.354;2023-12-20T04:04:16;100844.00;;;9.40
38114;BMP180;23926;53.222;6.354;2023-12-20T04:06:42;100849.00;;;9.40
38114;BMP180;23926;53.222;6.354;2023-12-20T04:09:07;100852.00;;;9.20
38114;BMP180;23926;53.222;6.354;2023-12-20T04:11:34;100831.00;;;9.00
38114;BMP180;23926;53.222;6.354;2023-12-20T04:14:00;100850.00;;;9.30
38114;BMP180;23926;53.222;6.354;2023-12-20T04:16:26;100837.00;;;9.70
38114;BMP180;23926;53.222;6.354;2023-12-20T04:18:51;100843.00;;;9.80
38114;BMP180;23926;53.222;6.354;2023-12-20T04:21:17;100820.00;;;9.50
38114;BMP180;23926;53.222;6.354;2023-12-20T04:23:42;100844.00;;;9.80
38114;BMP180;23926;53.222;6.354;2023-12-20T04:26:07;100826.00;;;9.90
38114;BMP180;23926;53.222;6.354;2023-12-20T04:28:33;100835.00;;;9.80
38114;BMP180;23926;53.222;6.354;2023-12-20T04:30:58;100830.00;;;9.80
38114;BMP180;23926;53.222;6.354;2023-12-20T04:33:23;100833.00;;;9.90
38114;BMP180;23926;53.222;6.354;2023-12-20T04:35:49;100833.00;;;9.70
38114;BMP180;23926;53.222;6.354;2023-12-20T04:38:15;100832.00;;;9.80
38114;BMP180;23926;53.222;6.354;2023-12-20T04:40:40;100834.00;;;9.70
38114;BMP180;23926;53.222;6.354;2023-12-20T04:43:07;100822.00;;;9.60
38114;BMP180;23926;53.222;6.354;2023-12-20T04:45:32;100820.00;;;10.00
38114;BMP180;23926;53.222;6.354;2023-12-20T04:47:58;100822.00;;;9.90
38114;BMP180;23926;53.222;6.354;2023-12-20T04:50:23;100834.00;;;10.00
38114;BMP180;23926;53.222;6.354;2023-12-20T04:52:49;100829.00;;;9.90
38114;BMP180;23926;53.222;6.354;2023-12-20T04:55:14;100829.00;;;9.90
38114;BMP180;23926;53.222;6.354;2023-12-20T04:57:39;100829.00;;;9.90
38114;BMP180;23926;53.222;6.354;2023-12-20T05:00:06;100832.00;;;9.90
38114;BMP180;23926;53.222;6.354;2023-12-20T05:02:33;100833.00;;;10.00
38114;BMP180;23926;53.222;6.354;2023-12-20T05:04:59;100839.00;;;10.10
38114;BMP180;23926;53.222;6.354;2023-12-20T05:07:24;100843.00;;;9.70
38114;BMP180;23926;53.222;6.354;2023-12-20T05:09:50;100839.00;;;9.70
38114;BMP180;23926;53.222;6.354;2023-12-20T05:12:15;100848.00;;;9.80
38114;BMP180;23926;53.222;6.354;2023-12-20T05:14:40;100828.00;;;10.00
38114;BMP180;23926;53.222;6.354;2023-12-20T05:17:06;100825.00;;;10.00
38114;BMP180;23926;53.222;6.354;2023-12-20T05:19:31;100829.00;;;9.90
38114;BMP180;23926;53.222;6.354;2023-12-20T05:22:00;100835.00;;;9.90
38114;BMP180;23926;53.222;6.354;2023-12-20T05:24:26;100830.00;;;10.30
38114;BMP180;23926;53.222;6.354;2023-12-20T05:26:51;100829.00;;;9.90
38114;BMP180;23926;53.222;6.354;2023-12-20T05:29:17;100823.00;;;10.30
38114;BMP180;23926;53.222;6.354;2023-12-20T05:31:42;100825.00;;;10.20
38114;BMP180;23926;53.222;6.354;2023-12-20T05:34:08;100815.00;;;10.40
38114;BMP180;23926;53.222;6.354;2023-12-20T05:36:33;100819.00;;;10.20
38114;BMP180;23926;53.222;6.354;2023-12-20T05:38:59;100812.00;;;10.20
38114;BMP180;23926;53.222;6.354;2023-12-20T05:41:24;100804.00;;;10.30
38114;BMP180;23926;53.222;6.354;2023-12-20T05:43:49;100786.00;;;10.20
38114;BMP180;23926;53.222;6.354;2023-12-20T05:46:15;100800.00;;;10.30
38114;BMP180;23926;53.222;6.354;2023-12-20T05:48:40;100802.00;;;10.10
38114;BMP180;23926;53.222;6.354;2023-12-20T05:51:06;100816.00;;;10.30
38114;BMP180;23926;53.222;6.354;2023-12-20T05:53:31;100806.00;;;10.20
38114;BMP180;23926;53.222;6.354;2023-12-20T05:55:56;100813.00;;;10.40
38114;BMP180;23926;53.222;6.354;2023-12-20T05:58:21;100794.00;;;10.20
38114;BMP180;23926;53.222;6.354;2023-12-20T06:00:47;100797.00;;;10.10
38114;BMP180;23926;53.222;6.354;2023-12-20T06:03:14;100802.00;;;10.20
38114;BMP180;23926;53.222;6.354;2023-12-20T06:05:39;100796.00;;;10.40
38114;BMP180;23926;53.222;6.354;2023-12-20T06:08:05;100796.00;;;10.40
38114;BMP180;23926;53.222;6.354;2023-12-20T06:10:30;100797.00;;;10.20
38114;BMP180;23926;53.222;6.354;2023-12-20T06:12:56;100781.00;;;10.20
38114;BMP180;23926;53.222;6.354;2023-12-20T06:15:22;100793.00;;;10.40
38114;BMP180;23926;53.222;6.354;2023-12-20T06:17:48;100795.00;;;10.30
38114;BMP180;23926;53.222;6.354;2023-12-20T06:20:13;100796.00;;;10.50
38114;BMP180;23926;53.222;6.354;2023-12-20T06:22:39;100780.00;;;10.20
38114;BMP180;23926;53.222;6.354;2023-12-20T06:25:04;100795.00;;;10.40
38114;BMP180;23926;53.222;6.354;2023-12-20T06:27:30;100787.00;;;10.30
38114;BMP180;23926;53.222;6.354;2023-12-20T06:29:57;100772.00;;;10.50
38114;BMP180;23926;53.222;6.354;2023-12-20T06:32:23;100774.00;;;10.10
38114;BMP180;23926;53.222;6.354;2023-12-20T06:34:48;100787.00;;;10.40
38114;BMP180;23926;53.222;6.354;2023-12-20T06:37:14;100765.00;;;10.30
38114;BMP180;23926;53.222;6.354;2023-12-20T06:39:40;100774.00;;;10.40
38114;BMP180;23926;53.222;6.354;2023-12-20T06:42:06;100765.00;;;10.20
38114;BMP180;23926;53.222;6.354;2023-12-20T06:44:32;100769.00;;;10.10
38114;BMP180;23926;53.222;6.354;2023-12-20T06:46:57;100753.00;;;10.30
38114;BMP180;23926;53.222;6.354;2023-12-20T06:49:23;100772.00;;;10.50
38114;BMP180;23926;53.222;6.354;2023-12-20T06:51:48;100757.00;;;10.40
38114;BMP180;23926;53.222;6.354;2023-12-20T06:54:14;100760.00;;;10.40
38114;BMP180;23926;53.222;6.354;2023-12-20T06:56:39;100751.00;;;10.50
38114;BMP180;23926;53.222;6.354;2023-12-20T06:59:05;100757.00;;;10.50
38114;BMP180;23926;53.222;6.354;2023-12-20T07:01:31;100752.00;;;10.30
38114;BMP180;23926;53.222;6.354;2023-12-20T07:03:56;100753.00;;;10.60
38114;BMP180;23926;53.222;6.354;2023-12-20T07:06:22;100743.00;;;10.70
38114;BMP180;23926;53.222;6.354;2023-12-20T07:08:48;100735.00;;;10.60
38114;BMP180;23926;53.222;6.354;2023-12-20T07:11:13;100750.00;;;10.20
38114;BMP180;23926;53.222;6.354;2023-12-20T07:13:38;100730.00;;;10.20
38114;BMP180;23926;53.222;6.354;2023-12-20T07:16:04;100739.00;;;10.40
38114;BMP180;23926;53.222;6.354;2023-12-20T07:18:29;100747.00;;;10.40
38114;BMP180;23926;53.222;6.354;2023-12-20T07:20:55;100748.00;;;10.40
38114;BMP180;23926;53.222;6.354;2023-12-20T07:23:20;100741.00;;;10.50
38114;BMP180;23926;53.222;6.354;2023-12-20T07:25:46;100738.00;;;10.50
38114;BMP180;23926;53.222;6.354;2023-12-20T07:28:12;100746.00;;;10.40
38114;BMP180;23926;53.222;6.354;2023-12-20T07:30:37;100738.00;;;10.30
38114;BMP180;23926;53.222;6.354;2023-12-20T07:33:03;100742.00;;;10.40
38114;BMP180;23926;53.222;6.354;2023-12-20T07:35:28;100740.00;;;10.30
38114;BMP180;23926;53.222;6.354;2023-12-20T07:37:53;100737.00;;;10.30
38114;BMP180;23926;53.222;6.354;2023-12-20T07:40:19;100741.00;;;10.50
38114;BMP180;23926;53.222;6.354;2023-12-20T07:42:44;100750.00;;;10.50
38114;BMP180;23926;53.222;6.354;2023-12-20T07:45:10;100742.00;;;10.50
38114;BMP180;23926;53.222;6.354;2023-12-20T07:47:37;100755.00;;;10.40
38114;BMP180;23926;53.222;6.354;2023-12-20T07:50:02;100753.00;;;10.30
38114;BMP180;23926;53.222;6.354;2023-12-20T07:52:29;100753.00;;;10.30
38114;BMP180;23926;53.222;6.354;2023-12-20T07:54:54;100752.00;;;10.30
38114;BMP180;23926;53.222;6.354;2023-12-20T07:57:20;100760.00;;;10.50
38114;BMP180;23926;53.222;6.354;2023-12-20T07:59:45;100751.00;;;10.50
38114;BMP180;23926;53.222;6.354;2023-12-20T08:02:10;100751.00;;;10.50
38114;BMP180;23926;53.222;6.354;2023-12-20T08:04:36;100750.00;;;10.20
38114;BMP180;23926;53.222;6.354;2023-12-20T08:07:01;100744.00;;;10.50
38114;BMP180;23926;53.222;6.354;2023-12-20T08:09:27;100750.00;;;10.50
38114;BMP180;23926;53.222;6.354;2023-12-20T08:11:52;100760.00;;;10.20
38114;BMP180;23926;53.222;6.354;2023-12-20T08:14:18;100749.00;;;10.30
38114;BMP180;23926;53.222;6.354;2023-12-20T08:16:43;100759.00;;;10.00
38114;BMP180;23926;53.222;6.354;2023-12-20T08:19:08;100752.00;;;10.00
38114;BMP180;23926;53.222;6.354;2023-12-20T08:21:34;100746.00;;;10.00
38114;BMP180;23926;53.222;6.354;2023-12-20T08:23:59;100784.00;;;10.00
38114;BMP180;23926;53.222;6.354;2023-12-20T08:26:26;100764.00;;;10.00
38114;BMP180;23926;53.222;6.354;2023-12-20T08:28:51;100764.00;;;10.20
38114;BMP180;23926;53.222;6.354;2023-12-20T08:31:17;100767.00;;;10.20
38114;BMP180;23926;53.222;6.354;2023-12-20T08:33:47;100749.00;;;10.20
38114;BMP180;23926;53.222;6.354;2023-12-20T08:36:13;100772.00;;;10.20
38114;BMP180;23926;53.222;6.354;2023-12-20T08:38:38;100763.00;;;10.30
38114;BMP180;23926;53.222;6.354;2023-12-20T08:41:04;100767.00;;;10.20
38114;BMP180;23926;53.222;6.354;2023-12-20T08:43:31;100768.00;;;9.70
38114;BMP180;23926;53.222;6.354;2023-12-20T08:45:56;100787.00;;;9.50
38114;BMP180;23926;53.222;6.354;2023-12-20T08:48:22;100791.00;;;9.40
38114;BMP180;23926;53.222;6.354;2023-12-20T08:50:47;100824.00;;;9.20
38114;BMP180;23926;53.222;6.354;2023-12-20T08:53:15;100806.00;;;8.50
38114;BMP180;23926;53.222;6.354;2023-12-20T08:55:41;100804.00;;;8.40
38114;BMP180;23926;53.222;6.354;2023-12-20T08:58:07;100812.00;;;8.30
38114;BMP180;23926;53.222;6.354;2023-12-20T09:00:34;100825.00;;;8.10
38114;BMP180;23926;53.222;6.354;2023-12-20T09:03:01;100847.00;;;8.00
38114;BMP180;23926;53.222;6.354;2023-12-20T09:05:27;100852.00;;;8.10
38114;BMP180;23926;53.222;6.354;2023-12-20T09:07:52;100846.00;;;7.80
38114;BMP180;23926;53.222;6.354;2023-12-20T09:10:18;100809.00;;;7.60
38114;BMP180;23926;53.222;6.354;2023-12-20T09:12:56;100849.00;;;7.60
38114;BMP180;23926;53.222;6.354;2023-12-20T09:15:26;100856.00;;;7.70
38114;BMP180;23926;53.222;6.354;2023-12-20T09:17:52;100837.00;;;7.60
38114;BMP180;23926;53.222;6.354;2023-12-20T09:20:18;100818.00;;;7.70
38114;BMP180;23926;53.222;6.354;2023-12-20T09:22:43;100837.00;;;7.50
38114;BMP180;23926;53.222;6.354;2023-12-20T09:25:09;100817.00;;;7.50
38114;BMP180;23926;53.222;6.354;2023-12-20T09:27:35;100824.00;;;7.60
38114;BMP180;23926;53.222;6.354;2023-12-20T09:30:01;100825.00;;;7.90
38114;BMP180;23926;53.222;6.354;2023-12-20T09:32:26;100837.00;;;7.70
38114;BMP180;23926;53.222;6.354;2023-12-20T09:34:52;100847.00;;;7.90
38114;BMP180;23926;53.222;6.354;2023-12-20T09:37:17;100866.00;;;8.00
38114;BMP180;23926;53.222;6.354;2023-12-20T09:39:43;100881.00;;;8.00
38114;BMP180;23926;53.222;6.354;2023-12-20T09:42:11;100891.00;;;8.10
38114;BMP180;23926;53.222;6.354;2023-12-20T09:44:37;100856.00;;;8.30
38114;BMP180;23926;53.222;6.354;2023-12-20T09:47:06;100835.00;;;8.30
38114;BMP180;23926;53.222;6.354;2023-12-20T09:49:32;100853.00;;;8.30
38114;BMP180;23926;53.222;6.354;2023-12-20T09:52:00;100859.00;;;8.40
38114;BMP180;23926;53.222;6.354;2023-12-20T09:54:28;100866.00;;;8.20
38114;BMP180;23926;53.222;6.354;2023-12-20T09:56:54;100853.00;;;8.30
38114;BMP180;23926;53.222;6.354;2023-12-20T09:59:19;100876.00;;;8.40
38114;BMP180;23926;53.222;6.354;2023-12-20T10:01:45;100883.00;;;8.50
38114;BMP180;23926;53.222;6.354;2023-12-20T10:04:12;100874.00;;;8.70
38114;BMP180;23926;53.222;6.354;2023-12-20T10:06:42;100877.00;;;8.80
38114;BMP180;23926;53.222;6.354;2023-12-20T10:09:08;100872.00;;;8.90
38114;BMP180;23926;53.222;6.354;2023-12-20T10:11:35;100874.00;;;8.80
38114;BMP180;23926;53.222;6.354;2023-12-20T10:14:02;100872.00;;;8.60
38114;BMP180;23926;53.222;6.354;2023-12-20T10:16:28;100876.00;;;8.70
38114;BMP180;23926;53.222;6.354;2023-12-20T10:18:54;100883.00;;;8.70
38114;BMP180;23926;53.222;6.354;2023-12-20T10:21:21;100862.00;;;8.50
38114;BMP180;23926;53.222;6.354;2023-12-20T10:26:21;100857.00;;;9.00
38114;BMP180;23926;53.222;6.354;2023-12-20T10:28:50;100869.00;;;9.10
38114;BMP180;23926;53.222;6.354;2023-12-20T10:31:32;100860.00;;;9.10
38114;BMP180;23926;53.222;6.354;2023-12-20T10:33:59;100845.00;;;9.20
38114;BMP180;23926;53.222;6.354;2023-12-20T10:36:27;100861.00;;;9.20
38114;BMP180;23926;53.222;6.354;2023-12-20T10:38:53;100830.00;;;9.20
38114;BMP180;23926;53.222;6.354;2023-12-20T10:41:25;100826.00;;;9.10
38114;BMP180;23926;53.222;6.354;2023-12-20T10:43:52;100830.00;;;8.90
38114;BMP180;23926;53.222;6.354;2023-12-20T10:46:19;100844.00;;;9.10
38114;BMP180;23926;53.222;6.354;2023-12-20T10:48:45;100851.00;;;9.00
38114;BMP180;23926;53.222;6.354;2023-12-20T10:51:13;100819.00;;;9.20
38114;BMP180;23926;53.222;6.354;2023-12-20T10:53:41;100822.00;;;9.40
38114;BMP180;23926;53.222;6.354;2023-12-20T10:56:08;100831.00;;;9.10
38114;BMP180;23926;53.222;6.354;2023-12-20T10:58:37;100834.00;;;9.40
38114;BMP180;23926;53.222;6.354;2023-12-20T11:01:07;100835.00;;;9.70
38114;BMP180;23926;53.222;6.354;2023-12-20T11:03:35;100821.00;;;9.70
38114;BMP180;23926;53.222;6.354;2023-12-20T11:06:15;100844.00;;;9.70
38114;BMP180;23926;53.222;6.354;2023-12-20T11:14:20;100835.00;;;9.80
38114;BMP180;23926;53.222;6.354;2023-12-20T11:16:47;100822.00;;;9.80
38114;BMP180;23926;53.222;6.354;2023-12-20T11:19:13;100819.00;;;10.00
38114;BMP180;23926;53.222;6.354;2023-12-20T11:21:41;100830.00;;;9.80
38114;BMP180;23926;53.222;6.354;2023-12-20T11:24:07;100803.00;;;9.60
38114;BMP180;23926;53.222;6.354;2023-12-20T11:26:32;100820.00;;;9.90
38114;BMP180;23926;53.222;6.354;2023-12-20T11:31:54;100816.00;;;10.10
38114;BMP180;23926;53.222;6.354;2023-12-20T11:34:19;100800.00;;;10.10
38114;BMP180;23926;53.222;6.354;2023-12-20T11:36:45;100801.00;;;10.20
38114;BMP180;23926;53.222;6.354;2023-12-20T11:39:10;100799.00;;;10.50
38114;BMP180;23926;53.222;6.354;2023-12-20T11:41:36;100784.00;;;10.50
38114;BMP180;23926;53.222;6.354;2023-12-20T11:44:04;100789.00;;;10.50
38114;BMP180;23926;53.222;6.354;2023-12-20T11:46:31;100791.00;;;10.40
38114;BMP180;23926;53.222;6.354;2023-12-20T11:48:56;100802.00;;;10.40
38114;BMP180;23926;53.222;6.354;2023-12-20T11:51:22;100797.00;;;10.10
38114;BMP180;23926;53.222;6.354;2023-12-20T11:53:51;100802.00;;;10.10
38114;BMP180;23926;53.222;6.354;2023-12-20T11:56:17;100780.00;;;10.10
38114;BMP180;23926;53.222;6.354;2023-12-20T11:58:42;100714.00;;;10.10
38114;BMP180;23926;53.222;6.354;2023-12-20T12:01:08;100768.00;;;10.40
38114;BMP180;23926;53.222;6.354;2023-12-20T12:03:33;100767.00;;;10.20
38114;BMP180;23926;53.222;6.354;2023-12-20T12:05:59;100786.00;;;10.40
38114;BMP180;23926;53.222;6.354;2023-12-20T12:08:26;100771.00;;;10.40
38114;BMP180;23926;53.222;6.354;2023-12-20T12:10:51;100755.00;;;10.40
38114;BMP180;23926;53.222;6.354;2023-12-20T12:13:17;100766.00;;;10.60
38114;BMP180;23926;53.222;6.354;2023-12-20T12:15:42;100779.00;;;10.70
38114;BMP180;23926;53.222;6.354;2023-12-20T12:29:27;100772.00;;;10.20
38114;BMP180;23926;53.222;6.354;2023-12-20T12:31:52;100759.00;;;10.20
38114;BMP180;23926;53.222;6.354;2023-12-20T12:34:18;100752.00;;;10.30
38114;BMP180;23926;53.222;6.354;2023-12-20T12:36:44;100772.00;;;10.40
38114;BMP180;23926;53.222;6.354;2023-12-20T12:39:12;100779.00;;;10.60
38114;BMP180;23926;53.222;6.354;2023-12-20T12:41:40;100758.00;;;10.50
38114;BMP180;23926;53.222;6.354;2023-12-20T12:44:05;100761.00;;;10.40
38114;BMP180;23926;53.222;6.354;2023-12-20T12:46:30;100756.00;;;10.40
38114;BMP180;23926;53.222;6.354;2023-12-20T12:48:56;100758.00;;;10.20
38114;BMP180;23926;53.222;6.354;2023-12-20T12:51:21;100735.00;;;10.60
38114;BMP180;23926;53.222;6.354;2023-12-20T12:53:47;100753.00;;;10.70
38114;BMP180;23926;53.222;6.354;2023-12-20T12:56:12;100754.00;;;10.40
38114;BMP180;23926;53.222;6.354;2023-12-20T12:58:38;100766.00;;;10.40
38114;BMP180;23926;53.222;6.354;2023-12-20T13:01:04;100762.00;;;10.60
38114;BMP180;23926;53.222;6.354;2023-12-20T13:03:29;100744.00;;;10.40
38114;BMP180;23926;53.222;6.354;2023-12-20T13:05:55;100757.00;;;10.40
38114;BMP180;23926;53.222;6.354;2023-12-20T13:08:20;100752.00;;;10.70
38114;BMP180;23926;53.222;6.354;2023-12-20T13:10:46;100713.00;;;10.20
38114;BMP180;23926;53.222;6.354;2023-12-20T13:13:11;100745.00;;;10.00
38114;BMP180;23926;53.222;6.354;2023-12-20T13:15:37;100740.00;;;9.90
38114;BMP180;23926;53.222;6.354;2023-12-20T13:25:13;100736.00;;;9.40
38114;BMP180;23926;53.222;6.354;2023-12-20T13:27:39;100725.00;;;9.50
38114;BMP180;23926;53.222;6.354;2023-12-20T13:30:05;100725.00;;;9.80
38114;BMP180;23926;53.222;6.354;2023-12-20T13:32:31;100739.00;;;9.70
38114;BMP180;23926;53.222;6.354;2023-12-20T13:34:56;100721.00;;;9.60
38114;BMP180;23926;53.222;6.354;2023-12-20T13:37:22;100711.00;;;9.70
38114;BMP180;23926;53.222;6.354;2023-12-20T13:39:47;100703.00;;;9.70
38114;BMP180;23926;53.222;6.354;2023-12-20T13:42:13;100705.00;;;9.60
38114;BMP180;23926;53.222;6.354;2023-12-20T13:44:39;100697.00;;;9.60
38114;BMP180;23926;53.222;6.354;2023-12-20T13:47:05;100716.00;;;9.50
38114;BMP180;23926;53.222;6.354;2023-12-20T13:49:31;100711.00;;;9.70
38114;BMP180;23926;53.222;6.354;2023-12-20T13:51:56;100719.00;;;9.80
38114;BMP180;23926;53.222;6.354;2023-12-20T13:54:23;100716.00;;;9.50
38114;BMP180;23926;53.222;6.354;2023-12-20T13:56:48;100716.00;;;9.30
38114;BMP180;23926;53.222;6.354;2023-12-20T13:59:13;100710.00;;;9.20
38114;BMP180;23926;53.222;6.354;2023-12-20T14:01:40;100692.00;;;9.40
38114;BMP180;23926;53.222;6.354;2023-12-20T14:04:05;100693.00;;;9.50
38114;BMP180;23926;53.222;6.354;2023-12-20T14:06:32;100709.00;;;9.60
38114;BMP180;23926;53.222;6.354;2023-12-20T14:08:58;100703.00;;;9.30
38114;BMP180;23926;53.222;6.354;2023-12-20T14:11:25;100681.00;;;9.30
38114;BMP180;23926;53.222;6.354;2023-12-20T14:13:51;100660.00;;;9.30
38114;BMP180;23926;53.222;6.354;2023-12-20T14:16:16;100699.00;;;9.20
38114;BMP180;23926;53.222;6.354;2023-12-20T14:18:42;100698.00;;;9.10
38114;BMP180;23926;53.222;6.354;2023-12-20T14:21:07;100688.00;;;9.10
38114;BMP180;23926;53.222;6.354;2023-12-20T14:23:33;100713.00;;;8.90
38114;BMP180;23926;53.222;6.354;2023-12-20T14:25:59;100673.00;;;9.20